sensor_id;sensor_type;location;lat;lon;timestamp;pressure;altitude;pressure_sealevel;temperature;humidity
38912;BME280;28444;48.056;14.408;2023-02-26T00:01:34;96619.50;;;0.86;97.08
38912;BME280;28444;48.056;14.408;2023-02-26T00:04:03;96618.06;;;0.85;96.49
38912;BME280;28444;48.056;14.408;2023-02-26T00:06:35;96627.09;;;0.74;96.54
38912;BME280;28444;48.056;14.408;2023-02-26T00:09:03;96628.22;;;0.79;96.50
38912;BME280;28444;48.056;14.408;2023-02-26T00:11:31;96628.03;;;0.77;96.70
38912;BME280;28444;48.056;14.408;2023-02-26T00:14:01;96629.78;;;0.74;97.89
38912;BME280;28444;48.056;14.408;2023-02-26T00:16:34;96628.53;;;0.88;96.55
38912;BME280;28444;48.056;14.408;2023-02-26T00:19:03;96631.22;;;0.88;95.54
38912;BME280;28444;48.056;14.408;2023-02-26T00:21:32;96634.22;;;0.85;95.65
38912;BME280;28444;48.056;14.408;2023-02-26T00:23:59;96638.88;;;0.84;96.03
38912;BME280;28444;48.056;14.408;2023-02-26T00:26:29;96627.28;;;0.89;96.07
38912;BME280;28444;48.056;14.408;2023-02-26T00:28:57;96634.00;;;0.83;96.38
38912;BME280;28444;48.056;14.408;2023-02-26T00:31:24;96643.34;;;0.82;95.93
38912;BME280;28444;48.056;14.408;2023-02-26T00:33:52;96637.03;;;0.66;96.91
38912;BME280;28444;48.056;14.408;2023-02-26T00:36:28;96642.47;;;0.47;98.17
38912;BME280;28444;48.056;14.408;2023-02-26T00:39:29;96636.66;;;0.43;99.45
38912;BME280;28444;48.056;14.408;2023-02-26T00:42:00;96635.94;;;0.29;100.00
38912;BME280;28444;48.056;14.408;2023-02-26T00:44:27;96642.97;;;0.32;100.00
38912;BME280;28444;48.056;14.408;2023-02-26T00:47:17;96638.19;;;0.25;100.00
38912;BME280;28444;48.056;14.408;2023-02-26T00:55:45;96633.97;;;0.30;100.00
38912;BME280;28444;48.056;14.408;2023-02-26T00:58:11;96629.75;;;0.34;99.45
38912;BME280;28444;48.056;14.408;2023-02-26T01:00:38;96624.56;;;0.36;99.60
38912;BME280;28444;48.056;14.408;2023-02-26T01:03:05;96628.41;;;0.41;99.11
38912;BME280;28444;48.056;14.408;2023-02-26T01:05:32;96626.84;;;0.45;99.12
38912;BME280;28444;48.056;14.408;2023-02-26T01:08:14;96634.59;;;0.36;98.72
38912;BME280;28444;48.056;14.408;2023-02-26T01:10:44;96636.97;;;0.39;98.86
38912;BME280;28444;48.056;14.408;2023-02-26T01:13:11;96642.66;;;0.22;99.74
38912;BME280;28444;48.056;14.408;2023-02-26T01:15:39;96633.88;;;0.35;99.43
38912;BME280;28444;48.056;14.408;2023-02-26T01:18:20;96636.06;;;0.50;98.95
38912;BME280;28444;48.056;14.408;2023-02-26T01:20:57;96647.38;;;0.62;97.62
38912;BME280;28444;48.056;14.408;2023-02-26T01:23:31;96642.06;;;0.56;97.01
38912;BME280;28444;48.056;14.408;2023-02-26T01:26:11;96651.09;;;0.72;97.07
38912;BME280;28444;48.056;14.408;2023-02-26T01:28:40;96645.38;;;0.76;97.25
38912;BME280;28444;48.056;14.408;2023-02-26T01:31:16;96640.84;;;0.70;96.09
38912;BME280;28444;48.056;14.408;2023-02-26T01:33:52;96651.91;;;0.54;96.30
38912;BME280;28444;48.056;14.408;2023-02-26T01:36:27;96641.66;;;0.52;96.60
38912;BME280;28444;48.056;14.408;2023-02-26T01:39:02;96646.72;;;0.42;96.79
38912;BME280;28444;48.056;14.408;2023-02-26T01:41:51;96646.78;;;0.23;97.34
38912;BME280;28444;48.056;14.408;2023-02-26T01:44:40;96653.59;;;0.24;98.01
38912;BME280;28444;48.056;14.408;2023-02-26T01:50:45;96661.69;;;0.24;95.50
38912;BME280;28444;48.056;14.408;2023-02-26T01:53:21;96663.81;;;0.13;94.43
38912;BME280;28444;48.056;14.408;2023-02-26T01:55:54;96665.84;;;-0.07;89.88
38912;BME280;28444;48.056;14.408;2023-02-26T01:58:21;96667.16;;;-0.13;89.52
38912;BME280;28444;48.056;14.408;2023-02-26T02:00:50;96671.44;;;-0.23;86.66
38912;BME280;28444;48.056;14.408;2023-02-26T02:03:19;96665.41;;;-0.30;84.81
38912;BME280;28444;48.056;14.408;2023-02-26T02:05:57;96672.31;;;-0.34;84.41
38912;BME280;28444;48.056;14.408;2023-02-26T02:08:26;96674.28;;;-0.35;82.71
38912;BME280;28444;48.056;14.408;2023-02-26T02:10:53;96673.19;;;-0.45;81.52
38912;BME280;28444;48.056;14.408;2023-02-26T02:13:49;96675.22;;;-0.51;80.90
38912;BME280;28444;48.056;14.408;2023-02-26T02:16:47;96689.03;;;-0.60;80.77
38912;BME280;28444;48.056;14.408;2023-02-26T02:23:09;96697.00;;;-0.55;81.68
38912;BME280;28444;48.056;14.408;2023-02-26T02:29:32;96711.00;;;-0.62;79.96
38912;BME280;28444;48.056;14.408;2023-02-26T02:32:16;96716.38;;;-0.62;80.93
38912;BME280;28444;48.056;14.408;2023-02-26T02:35:11;96714.50;;;-0.67;80.46
38912;BME280;28444;48.056;14.408;2023-02-26T02:37:52;96704.97;;;-0.68;80.55
38912;BME280;28444;48.056;14.408;2023-02-26T02:40:24;96704.03;;;-0.70;80.10
38912;BME280;28444;48.056;14.408;2023-02-26T02:43:01;96702.88;;;-0.75;79.83
38912;BME280;28444;48.056;14.408;2023-02-26T02:45:55;96707.00;;;-0.74;81.50
38912;BME280;28444;48.056;14.408;2023-02-26T02:48:30;96701.34;;;-0.70;81.33
38912;BME280;28444;48.056;14.408;2023-02-26T02:51:03;96708.63;;;-0.65;80.37
38912;BME280;28444;48.056;14.408;2023-02-26T02:53:42;96706.84;;;-0.82;77.39
38912;BME280;28444;48.056;14.408;2023-02-26T02:56:27;96712.81;;;-0.70;79.80
38912;BME280;28444;48.056;14.408;2023-02-26T02:59:05;96714.19;;;-0.63;79.11
38912;BME280;28444;48.056;14.408;2023-02-26T03:01:37;96713.47;;;-0.64;79.56
38912;BME280;28444;48.056;14.408;2023-02-26T03:04:07;96720.50;;;-0.80;79.01
38912;BME280;28444;48.056;14.408;2023-02-26T03:06:36;96729.13;;;-0.87;79.72
38912;BME280;28444;48.056;14.408;2023-02-26T03:09:04;96733.41;;;-0.78;78.96
38912;BME280;28444;48.056;14.408;2023-02-26T03:11:33;96733.28;;;-0.67;80.19
38912;BME280;28444;48.056;14.408;2023-02-26T03:14:00;96727.28;;;-0.54;76.61
38912;BME280;28444;48.056;14.408;2023-02-26T03:19:40;96757.19;;;-0.63;76.69
38912;BME280;28444;48.056;14.408;2023-02-26T03:22:50;96750.63;;;-0.68;76.93
38912;BME280;28444;48.056;14.408;2023-02-26T03:25:40;96765.03;;;-0.65;75.82
38912;BME280;28444;48.056;14.408;2023-02-26T03:28:31;96761.81;;;-0.64;76.18
38912;BME280;28444;48.056;14.408;2023-02-26T03:31:08;96758.69;;;-0.68;76.13
38912;BME280;28444;48.056;14.408;2023-02-26T03:33:57;96772.31;;;-0.66;76.07
38912;BME280;28444;48.056;14.408;2023-02-26T03:36:39;96768.47;;;-0.70;77.85
38912;BME280;28444;48.056;14.408;2023-02-26T03:39:15;96776.72;;;-0.44;77.82
38912;BME280;28444;48.056;14.408;2023-02-26T03:42:08;96789.94;;;-0.46;75.88
38912;BME280;28444;48.056;14.408;2023-02-26T03:44:41;96790.63;;;-0.40;76.31
38912;BME280;28444;48.056;14.408;2023-02-26T03:47:12;96791.97;;;-0.52;76.80
38912;BME280;28444;48.056;14.408;2023-02-26T03:49:44;96802.03;;;-0.58;78.29
38912;BME280;28444;48.056;14.408;2023-02-26T03:52:13;96796.84;;;-0.51;77.82
38912;BME280;28444;48.056;14.408;2023-02-26T03:54:44;96805.56;;;-0.44;76.89
38912;BME280;28444;48.056;14.408;2023-02-26T03:57:12;96810.44;;;-0.43;78.30
38912;BME280;28444;48.056;14.408;2023-02-26T03:59:39;96804.41;;;-0.49;77.33
38912;BME280;28444;48.056;14.408;2023-02-26T04:02:16;96809.22;;;-0.66;77.42
38912;BME280;28444;48.056;14.408;2023-02-26T04:05:03;96807.53;;;-0.69;78.76
38912;BME280;28444;48.056;14.408;2023-02-26T04:07:31;96809.66;;;-0.62;79.28
38912;BME280;28444;48.056;14.408;2023-02-26T04:09:58;96811.84;;;-0.61;78.76
38912;BME280;28444;48.056;14.408;2023-02-26T04:12:26;96812.56;;;-0.60;79.02
38912;BME280;28444;48.056;14.408;2023-02-26T04:14:55;96815.25;;;-0.60;78.64
38912;BME280;28444;48.056;14.408;2023-02-26T04:17:22;96811.41;;;-0.65;78.61
38912;BME280;28444;48.056;14.408;2023-02-26T04:19:49;96823.63;;;-0.69;78.18
38912;BME280;28444;48.056;14.408;2023-02-26T04:22:15;96819.56;;;-0.76;78.18
38912;BME280;28444;48.056;14.408;2023-02-26T04:24:42;96819.03;;;-0.69;78.89
38912;BME280;28444;48.056;14.408;2023-02-26T04:27:09;96822.75;;;-0.78;78.75
38912;BME280;28444;48.056;14.408;2023-02-26T04:29:35;96827.56;;;-0.70;77.36
38912;BME280;28444;48.056;14.408;2023-02-26T04:32:03;96835.22;;;-0.80;78.85
38912;BME280;28444;48.056;14.408;2023-02-26T04:34:29;96841.38;;;-0.85;77.29
38912;BME280;28444;48.056;14.408;2023-02-26T04:36:56;96842.09;;;-0.85;78.09
38912;BME280;28444;48.056;14.408;2023-02-26T04:39:23;96850.84;;;-0.79;78.56
38912;BME280;28444;48.056;14.408;2023-02-26T04:41:50;96852.56;;;-0.81;78.37
38912;BME280;28444;48.056;14.408;2023-02-26T04:44:16;96858.00;;;-0.87;78.68
38912;BME280;28444;48.056;14.408;2023-02-26T04:46:43;96855.31;;;-0.87;78.55
38912;BME280;28444;48.056;14.408;2023-02-26T04:49:10;96870.47;;;-0.89;79.38
38912;BME280;28444;48.056;14.408;2023-02-26T04:51:36;96873.41;;;-0.93;79.20
38912;BME280;28444;48.056;14.408;2023-02-26T04:54:03;96871.31;;;-1.06;78.49
38912;BME280;28444;48.056;14.408;2023-02-26T04:56:30;96878.53;;;-0.95;77.88
38912;BME280;28444;48.056;14.408;2023-02-26T04:58:57;96877.06;;;-0.90;77.79
38912;BME280;28444;48.056;14.408;2023-02-26T05:01:24;96872.91;;;-0.91;77.95
38912;BME280;28444;48.056;14.408;2023-02-26T05:03:51;96884.38;;;-0.91;79.13
38912;BME280;28444;48.056;14.408;2023-02-26T05:06:18;96885.50;;;-0.81;77.95
38912;BME280;28444;48.056;14.408;2023-02-26T05:08:44;96885.97;;;-0.77;78.54
38912;BME280;28444;48.056;14.408;2023-02-26T05:11:12;96886.03;;;-0.82;79.47
38912;BME280;28444;48.056;14.408;2023-02-26T05:13:38;96888.19;;;-0.81;77.54
38912;BME280;28444;48.056;14.408;2023-02-26T05:16:06;96892.13;;;-0.82;77.94
38912;BME280;28444;48.056;14.408;2023-02-26T05:18:33;96899.53;;;-0.93;77.42
38912;BME280;28444;48.056;14.408;2023-02-26T05:20:59;96912.25;;;-1.00;78.38
38912;BME280;28444;48.056;14.408;2023-02-26T05:23:26;96912.53;;;-1.03;78.92
38912;BME280;28444;48.056;14.408;2023-02-26T05:25:56;96915.47;;;-1.01;79.33
38912;BME280;28444;48.056;14.408;2023-02-26T05:28:24;96916.94;;;-1.06;78.89
38912;BME280;28444;48.056;14.408;2023-02-26T05:30:51;96911.09;;;-1.10;78.85
38912;BME280;28444;48.056;14.408;2023-02-26T05:33:19;96916.22;;;-1.06;78.89
38912;BME280;28444;48.056;14.408;2023-02-26T05:35:45;96921.91;;;-1.15;79.22
38912;BME280;28444;48.056;14.408;2023-02-26T05:38:13;96916.09;;;-1.25;79.79
38912;BME280;28444;48.056;14.408;2023-02-26T05:40:40;96928.00;;;-1.21;80.17
38912;BME280;28444;48.056;14.408;2023-02-26T05:43:07;96929.50;;;-1.19;80.85
38912;BME280;28444;48.056;14.408;2023-02-26T05:45:34;96925.25;;;-1.09;80.04
38912;BME280;28444;48.056;14.408;2023-02-26T05:48:01;96927.53;;;-1.19;79.71
38912;BME280;28444;48.056;14.408;2023-02-26T05:50:27;96921.97;;;-1.32;79.25
38912;BME280;28444;48.056;14.408;2023-02-26T05:52:56;96910.78;;;-1.31;78.92
38912;BME280;28444;48.056;14.408;2023-02-26T05:55:23;96916.06;;;-1.19;78.28
38912;BME280;28444;48.056;14.408;2023-02-26T05:57:49;96918.81;;;-1.31;78.04
38912;BME280;28444;48.056;14.408;2023-02-26T06:00:17;96936.59;;;-1.28;77.43
38912;BME280;28444;48.056;14.408;2023-02-26T06:02:43;96942.91;;;-1.19;76.88
38912;BME280;28444;48.056;14.408;2023-02-26T06:05:10;96952.69;;;-1.28;76.64
38912;BME280;28444;48.056;14.408;2023-02-26T06:07:37;96957.25;;;-1.17;75.94
38912;BME280;28444;48.056;14.408;2023-02-26T06:10:04;96961.38;;;-1.10;75.63
38912;BME280;28444;48.056;14.408;2023-02-26T06:12:31;96978.66;;;-1.06;75.62
38912;BME280;28444;48.056;14.408;2023-02-26T06:14:58;96988.59;;;-0.95;77.16
38912;BME280;28444;48.056;14.408;2023-02-26T06:17:25;96997.28;;;-0.78;78.21
38912;BME280;28444;48.056;14.408;2023-02-26T06:19:52;97004.38;;;-0.80;77.43
38912;BME280;28444;48.056;14.408;2023-02-26T06:22:19;97001.94;;;-0.78;77.48
38912;BME280;28444;48.056;14.408;2023-02-26T06:24:45;97006.13;;;-0.83;77.04
38912;BME280;28444;48.056;14.408;2023-02-26T06:27:12;97003.97;;;-0.90;77.01
38912;BME280;28444;48.056;14.408;2023-02-26T06:29:39;97002.72;;;-0.89;77.92
38912;BME280;28444;48.056;14.408;2023-02-26T06:32:06;96999.22;;;-0.73;78.55
38912;BME280;28444;48.056;14.408;2023-02-26T06:34:33;97007.41;;;-0.59;78.05
38912;BME280;28444;48.056;14.408;2023-02-26T06:36:59;97012.94;;;-0.46;78.18
38912;BME280;28444;48.056;14.408;2023-02-26T06:39:26;97007.41;;;-0.29;77.93
38912;BME280;28444;48.056;14.408;2023-02-26T06:41:53;97003.56;;;-0.34;78.35
38912;BME280;28444;48.056;14.408;2023-02-26T06:44:19;97007.16;;;-0.26;78.06
38912;BME280;28444;48.056;14.408;2023-02-26T06:46:46;97004.41;;;-0.20;78.03
38912;BME280;28444;48.056;14.408;2023-02-26T06:49:13;97011.22;;;-0.13;78.81
38912;BME280;28444;48.056;14.408;2023-02-26T06:51:40;97008.78;;;-0.17;79.39
38912;BME280;28444;48.056;14.408;2023-02-26T06:54:06;97014.59;;;-0.07;79.91
38912;BME280;28444;48.056;14.408;2023-02-26T06:56:33;97017.25;;;0.17;79.17
38912;BME280;28444;48.056;14.408;2023-02-26T06:59:00;97020.47;;;0.16;79.21
38912;BME280;28444;48.056;14.408;2023-02-26T07:01:27;97020.22;;;0.14;79.82
38912;BME280;28444;48.056;14.408;2023-02-26T07:03:53;97017.78;;;0.16;81.57
38912;BME280;28444;48.056;14.408;2023-02-26T07:06:20;97028.53;;;0.16;82.98
38912;BME280;28444;48.056;14.408;2023-02-26T07:08:54;97027.69;;;0.27;81.48
38912;BME280;28444;48.056;14.408;2023-02-26T07:11:20;97031.06;;;0.33;81.01
38912;BME280;28444;48.056;14.408;2023-02-26T07:13:47;97027.78;;;0.40;80.87
38912;BME280;28444;48.056;14.408;2023-02-26T07:16:14;97034.13;;;0.42;81.68
38912;BME280;28444;48.056;14.408;2023-02-26T07:18:41;97041.34;;;0.53;80.37
38912;BME280;28444;48.056;14.408;2023-02-26T07:21:07;97053.66;;;0.67;80.16
38912;BME280;28444;48.056;14.408;2023-02-26T07:23:34;97051.94;;;0.70;78.54
38912;BME280;28444;48.056;14.408;2023-02-26T07:26:01;97055.22;;;0.82;78.04
38912;BME280;28444;48.056;14.408;2023-02-26T07:28:28;97054.63;;;0.89;77.95
38912;BME280;28444;48.056;14.408;2023-02-26T07:30:55;97055.06;;;0.74;78.75
38912;BME280;28444;48.056;14.408;2023-02-26T07:33:23;97059.66;;;0.79;79.05
38912;BME280;28444;48.056;14.408;2023-02-26T07:35:50;97069.13;;;0.86;78.66
38912;BME280;28444;48.056;14.408;2023-02-26T07:38:17;97071.13;;;0.80;79.52
38912;BME280;28444;48.056;14.408;2023-02-26T07:40:45;97068.53;;;0.93;79.88
38912;BME280;28444;48.056;14.408;2023-02-26T07:43:12;97072.19;;;0.95;79.08
38912;BME280;28444;48.056;14.408;2023-02-26T07:45:39;97081.03;;;0.71;80.11
38912;BME280;28444;48.056;14.408;2023-02-26T07:48:06;97073.97;;;0.68;79.26
38912;BME280;28444;48.056;14.408;2023-02-26T07:50:32;97077.69;;;0.41;80.23
38912;BME280;28444;48.056;14.408;2023-02-26T07:52:59;97090.88;;;0.44;80.41
38912;BME280;28444;48.056;14.408;2023-02-26T07:55:26;97101.47;;;0.37;80.69
38912;BME280;28444;48.056;14.408;2023-02-26T07:57:53;97102.56;;;0.47;82.15
38912;BME280;28444;48.056;14.408;2023-02-26T08:00:20;97096.53;;;0.41;81.12
38912;BME280;28444;48.056;14.408;2023-02-26T08:02:47;97110.25;;;0.37;82.09
38912;BME280;28444;48.056;14.408;2023-02-26T08:05:13;97107.38;;;0.54;82.17
38912;BME280;28444;48.056;14.408;2023-02-26T08:07:40;97107.84;;;0.58;81.06
38912;BME280;28444;48.056;14.408;2023-02-26T08:10:08;97112.00;;;0.84;81.15
38912;BME280;28444;48.056;14.408;2023-02-26T08:12:35;97115.13;;;0.88;80.19
38912;BME280;28444;48.056;14.408;2023-02-26T08:15:03;97121.06;;;0.81;80.95
38912;BME280;28444;48.056;14.408;2023-02-26T08:17:51;97125.31;;;0.46;81.22
38912;BME280;28444;48.056;14.408;2023-02-26T08:20:18;97131.59;;;0.30;81.33
38912;BME280;28444;48.056;14.408;2023-02-26T08:22:45;97134.22;;;0.35;81.89
38912;BME280;28444;48.056;14.408;2023-02-26T08:25:11;97134.78;;;0.28;80.85
38912;BME280;28444;48.056;14.408;2023-02-26T08:27:38;97134.28;;;0.30;80.92
38912;BME280;28444;48.056;14.408;2023-02-26T08:30:06;97138.75;;;0.21;80.32
38912;BME280;28444;48.056;14.408;2023-02-26T08:32:33;97146.69;;;0.08;82.98
38912;BME280;28444;48.056;14.408;2023-02-26T08:35:00;97144.31;;;0.29;83.54
38912;BME280;28444;48.056;14.408;2023-02-26T08:37:26;97150.28;;;0.16;85.08
38912;BME280;28444;48.056;14.408;2023-02-26T08:39:53;97153.66;;;0.22;84.89
38912;BME280;28444;48.056;14.408;2023-02-26T08:42:19;97164.00;;;0.13;85.49
38912;BME280;28444;48.056;14.408;2023-02-26T08:44:46;97167.22;;;-0.30;86.93
38912;BME280;28444;48.056;14.408;2023-02-26T08:47:13;97164.56;;;-0.36;86.74
38912;BME280;28444;48.056;14.408;2023-02-26T08:49:50;97169.03;;;-0.50;87.34
38912;BME280;28444;48.056;14.408;2023-02-26T08:52:16;97166.03;;;-0.40;88.38
38912;BME280;28444;48.056;14.408;2023-02-26T08:54:43;97172.63;;;-0.36;89.37
38912;BME280;28444;48.056;14.408;2023-02-26T08:57:09;97178.50;;;-0.37;90.11
38912;BME280;28444;48.056;14.408;2023-02-26T08:59:36;97180.50;;;-0.49;90.41
38912;BME280;28444;48.056;14.408;2023-02-26T09:02:03;97180.75;;;-0.47;91.51
38912;BME280;28444;48.056;14.408;2023-02-26T09:04:30;97189.38;;;-0.18;91.53
38912;BME280;28444;48.056;14.408;2023-02-26T09:06:56;97187.47;;;-0.23;90.64
38912;BME280;28444;48.056;14.408;2023-02-26T09:09:23;97182.41;;;-0.38;92.08
38912;BME280;28444;48.056;14.408;2023-02-26T09:11:49;97194.34;;;-0.28;91.87
38912;BME280;28444;48.056;14.408;2023-02-26T09:14:16;97195.53;;;-0.23;92.85
38912;BME280;28444;48.056;14.408;2023-02-26T09:16:43;97197.34;;;-0.43;93.15
38912;BME280;28444;48.056;14.408;2023-02-26T09:19:10;97199.53;;;-0.41;93.67
38912;BME280;28444;48.056;14.408;2023-02-26T09:21:36;97207.59;;;-0.41;93.07
38912;BME280;28444;48.056;14.408;2023-02-26T09:24:03;97202.34;;;-0.22;94.07
38912;BME280;28444;48.056;14.408;2023-02-26T09:26:30;97212.88;;;-0.25;93.37
38912;BME280;28444;48.056;14.408;2023-02-26T09:28:56;97216.31;;;-0.24;93.13
38912;BME280;28444;48.056;14.408;2023-02-26T09:31:23;97223.13;;;-0.23;94.20
38912;BME280;28444;48.056;14.408;2023-02-26T09:33:50;97218.41;;;-0.11;92.68
38912;BME280;28444;48.056;14.408;2023-02-26T09:36:16;97225.53;;;-0.14;93.56
38912;BME280;28444;48.056;14.408;2023-02-26T09:38:43;97223.13;;;-0.17;94.17
38912;BME280;28444;48.056;14.408;2023-02-26T09:41:20;97230.72;;;-0.21;92.98
38912;BME280;28444;48.056;14.408;2023-02-26T09:44:14;97237.34;;;-0.34;93.24
38912;BME280;28444;48.056;14.408;2023-02-26T09:46:57;97234.41;;;-0.30;94.52
38912;BME280;28444;48.056;14.408;2023-02-26T09:49:31;97231.31;;;-0.04;93.75
38912;BME280;28444;48.056;14.408;2023-02-26T09:52:31;97233.53;;;-0.03;92.65
38912;BME280;28444;48.056;14.408;2023-02-26T09:55:04;97231.63;;;-0.13;91.35
38912;BME280;28444;48.056;14.408;2023-02-26T09:57:40;97234.19;;;-0.38;91.74
38912;BME280;28444;48.056;14.408;2023-02-26T10:00:22;97238.78;;;-0.27;92.97
38912;BME280;28444;48.056;14.408;2023-02-26T10:02:57;97241.88;;;-0.12;91.89
38912;BME280;28444;48.056;14.408;2023-02-26T10:05:52;97250.41;;;-0.02;92.30
38912;BME280;28444;48.056;14.408;2023-02-26T10:08:31;97255.78;;;-0.02;91.85
38912;BME280;28444;48.056;14.408;2023-02-26T10:11:06;97263.91;;;-0.13;90.65
38912;BME280;28444;48.056;14.408;2023-02-26T10:13:47;97259.75;;;-0.14;91.84
38912;BME280;28444;48.056;14.408;2023-02-26T10:16:26;97269.59;;;-0.28;91.53
38912;BME280;28444;48.056;14.408;2023-02-26T10:18:59;97259.09;;;-0.37;93.96
38912;BME280;28444;48.056;14.408;2023-02-26T10:21:36;97267.91;;;-0.37;94.89
38912;BME280;28444;48.056;14.408;2023-02-26T10:24:36;97274.28;;;0.07;93.35
38912;BME280;28444;48.056;14.408;2023-02-26T10:27:08;97278.84;;;0.23;93.67
38912;BME280;28444;48.056;14.408;2023-02-26T10:29:47;97273.56;;;0.48;90.84
38912;BME280;28444;48.056;14.408;2023-02-26T10:32:42;97271.28;;;0.58;91.00
38912;BME280;28444;48.056;14.408;2023-02-26T10:35:16;97268.09;;;0.59;90.46
38912;BME280;28444;48.056;14.408;2023-02-26T10:37:57;97275.84;;;0.68;91.70
38912;BME280;28444;48.056;14.408;2023-02-26T10:40:46;97281.38;;;0.46;87.91
38912;BME280;28444;48.056;14.408;2023-02-26T10:51:38;97289.94;;;1.10;84.86
38912;BME280;28444;48.056;14.408;2023-02-26T10:54:38;97298.06;;;1.05;84.12
38912;BME280;28444;48.056;14.408;2023-02-26T10:57:16;97286.16;;;1.19;84.46
38912;BME280;28444;48.056;14.408;2023-02-26T10:59:44;97287.53;;;1.31;81.92
38912;BME280;28444;48.056;14.408;2023-02-26T11:02:31;97290.75;;;1.49;83.63
38912;BME280;28444;48.056;14.408;2023-02-26T11:04:59;97282.47;;;1.47;81.19
38912;BME280;28444;48.056;14.408;2023-02-26T11:07:35;97287.91;;;1.41;84.38
38912;BME280;28444;48.056;14.408;2023-02-26T11:10:03;97275.38;;;1.43;81.17
38912;BME280;28444;48.056;14.408;2023-02-26T11:12:31;97274.09;;;1.50;80.59
38912;BME280;28444;48.056;14.408;2023-02-26T11:14:59;97272.28;;;1.34;80.62
38912;BME280;28444;48.056;14.408;2023-02-26T11:17:28;97264.69;;;1.13;82.36
38912;BME280;28444;48.056;14.408;2023-02-26T11:20:00;97253.66;;;1.36;82.72
38912;BME280;28444;48.056;14.408;2023-02-26T11:22:31;97253.31;;;1.45;81.91
38912;BME280;28444;48.056;14.408;2023-02-26T11:24:58;97240.88;;;1.42;82.02
38912;BME280;28444;48.056;14.408;2023-02-26T11:27:30;97242.75;;;1.47;82.41
38912;BME280;28444;48.056;14.408;2023-02-26T11:30:02;97238.97;;;1.37;79.76
38912;BME280;28444;48.056;14.408;2023-02-26T11:32:34;97243.38;;;1.34;80.06
38912;BME280;28444;48.056;14.408;2023-02-26T11:35:02;97271.41;;;1.26;81.35
38912;BME280;28444;48.056;14.408;2023-02-26T11:37:33;97287.97;;;1.35;82.72
38912;BME280;28444;48.056;14.408;2023-02-26T11:40:16;97279.50;;;1.50;79.35
38912;BME280;28444;48.056;14.408;2023-02-26T11:42:55;97274.66;;;1.43;79.41
38912;BME280;28444;48.056;14.408;2023-02-26T11:45:23;97271.78;;;1.60;79.04
38912;BME280;28444;48.056;14.408;2023-02-26T11:48:03;97239.50;;;1.73;78.91
38912;BME280;28444;48.056;14.408;2023-02-26T11:50:36;97226.25;;;1.75;77.75
38912;BME280;28444;48.056;14.408;2023-02-26T11:53:06;97230.19;;;1.74;80.57
38912;BME280;28444;48.056;14.408;2023-02-26T11:55:37;97223.19;;;1.65;73.29
38912;BME280;28444;48.056;14.408;2023-02-26T11:58:17;97234.16;;;1.49;79.94
38912;BME280;28444;48.056;14.408;2023-02-26T12:00:44;97260.78;;;1.58;81.92
38912;BME280;28444;48.056;14.408;2023-02-26T12:03:21;97262.94;;;1.59;80.67
38912;BME280;28444;48.056;14.408;2023-02-26T12:05:49;97264.28;;;1.53;80.25
38912;BME280;28444;48.056;14.408;2023-02-26T12:08:22;97261.88;;;1.49;78.28
38912;BME280;28444;48.056;14.408;2023-02-26T12:14:27;97241.47;;;1.91;80.16
38912;BME280;28444;48.056;14.408;2023-02-26T12:17:23;97237.41;;;2.04;79.32
38912;BME280;28444;48.056;14.408;2023-02-26T12:20:19;97233.19;;;2.40;78.41
38912;BME280;28444;48.056;14.408;2023-02-26T12:22:50;97237.34;;;2.87;75.21
38912;BME280;28444;48.056;14.408;2023-02-26T12:28:41;97252.00;;;3.05;74.38
38912;BME280;28444;48.056;14.408;2023-02-26T12:31:34;97262.19;;;3.12;73.32
38912;BME280;28444;48.056;14.408;2023-02-26T12:34:37;97275.84;;;3.20;74.83
38912;BME280;28444;48.056;14.408;2023-02-26T12:40:57;97281.59;;;2.84;73.52
38912;BME280;28444;48.056;14.408;2023-02-26T12:43:38;97290.94;;;2.83;73.89
38912;BME280;28444;48.056;14.408;2023-02-26T12:46:33;97296.31;;;2.70;74.72
38912;BME280;28444;48.056;14.408;2023-02-26T12:58:56;97310.00;;;2.39;76.61
38912;BME280;28444;48.056;14.408;2023-02-26T13:01:53;97321.69;;;2.29;76.72
38912;BME280;28444;48.056;14.408;2023-02-26T13:08:31;97337.63;;;1.89;78.74
38912;BME280;28444;48.056;14.408;2023-02-26T13:11:23;97332.03;;;1.62;80.23
38912;BME280;28444;48.056;14.408;2023-02-26T13:14:30;97332.94;;;1.46;82.24
38912;BME280;28444;48.056;14.408;2023-02-26T13:17:04;97323.50;;;1.34;84.20
38912;BME280;28444;48.056;14.408;2023-02-26T13:19:38;97326.84;;;1.15;86.02
38912;BME280;28444;48.056;14.408;2023-02-26T13:22:22;97321.56;;;0.74;86.22
38912;BME280;28444;48.056;14.408;2023-02-26T13:25:00;97328.94;;;0.68;85.71
38912;BME280;28444;48.056;14.408;2023-02-26T13:27:31;97328.22;;;0.67;86.22
38912;BME280;28444;48.056;14.408;2023-02-26T13:30:22;97327.88;;;0.82;85.45
38912;BME280;28444;48.056;14.408;2023-02-26T13:32:57;97327.19;;;1.06;85.45
38912;BME280;28444;48.056;14.408;2023-02-26T13:35:31;97325.84;;;1.18;83.38
38912;BME280;28444;48.056;14.408;2023-02-26T13:38:01;97329.91;;;1.31;83.57
38912;BME280;28444;48.056;14.408;2023-02-26T13:40:52;97335.84;;;1.24;80.08
38912;BME280;28444;48.056;14.408;2023-02-26T13:49:25;97330.63;;;1.99;80.47
38912;BME280;28444;48.056;14.408;2023-02-26T13:51:54;97332.28;;;1.83;76.52
38912;BME280;28444;48.056;14.408;2023-02-26T13:54:44;97326.91;;;1.83;74.79
38912;BME280;28444;48.056;14.408;2023-02-26T13:57:35;97326.47;;;1.98;79.56
38912;BME280;28444;48.056;14.408;2023-02-26T14:00:27;97341.06;;;2.08;78.50
38912;BME280;28444;48.056;14.408;2023-02-26T14:03:11;97347.34;;;1.98;80.88
38912;BME280;28444;48.056;14.408;2023-02-26T14:08:44;97353.53;;;1.92;80.94
38912;BME280;28444;48.056;14.408;2023-02-26T14:11:59;97352.72;;;1.98;80.24
38912;BME280;28444;48.056;14.408;2023-02-26T14:17:29;97350.44;;;1.83;80.29
38912;BME280;28444;48.056;14.408;2023-02-26T14:20:14;97352.13;;;1.86;82.24
38912;BME280;28444;48.056;14.408;2023-02-26T14:22:42;97352.88;;;1.86;81.86
38912;BME280;28444;48.056;14.408;2023-02-26T14:25:35;97357.72;;;1.88;81.39
38912;BME280;28444;48.056;14.408;2023-02-26T14:36:55;97368.81;;;1.84;80.46
38912;BME280;28444;48.056;14.408;2023-02-26T14:39:41;97367.47;;;1.97;79.59